createdAt,value
2018-04-07T00:00:02.365Z,1.90
2018-04-07T00:01:02.355Z,1.89
2018-04-07T00:02:02.349Z,1.90
2018-04-07T00:03:02.348Z,1.87
2018-04-07T00:04:02.337Z,1.75
2018-04-07T00:05:02.335Z,1.69
2018-04-07T00:06:02.331Z,1.58
2018-04-07T00:07:02.321Z,1.57
2018-04-07T00:08:02.314Z,1.64
2018-04-07T00:09:02.305Z,1.65
2018-04-07T00:10:02.303Z,1.64
2018-04-07T00:11:02.295Z,1.73
2018-04-07T00:12:02.294Z,1.68
2018-04-07T00:13:02.282Z,1.65
2018-04-07T00:14:02.286Z,1.68
2018-04-07T00:15:02.272Z,1.65
2018-04-07T00:16:02.264Z,1.75
2018-04-07T00:17:02.259Z,1.80
2018-04-07T00:18:02.251Z,1.79
2018-04-07T00:19:02.248Z,1.75
2018-04-07T00:20:02.245Z,1.83
2018-04-07T00:21:02.234Z,1.82
2018-04-07T00:22:02.235Z,1.80
2018-04-07T00:23:02.219Z,1.78
2018-04-07T00:24:02.217Z,1.71
2018-04-07T00:25:02.210Z,1.75
2018-04-07T00:26:02.226Z,1.68
2018-04-07T00:27:02.196Z,1.64
2018-04-07T00:28:02.189Z,1.57
2018-04-07T00:29:02.184Z,1.65
2018-04-07T00:30:02.181Z,1.65
2018-04-07T00:31:02.195Z,1.69
2018-04-07T00:32:02.163Z,1.68
2018-04-07T00:33:02.156Z,1.69
2018-04-07T00:34:02.153Z,1.72
2018-04-07T00:35:02.148Z,1.72
2018-04-07T00:36:02.137Z,1.64
2018-04-07T00:37:02.131Z,1.69
2018-04-07T00:38:02.129Z,1.60
2018-04-07T00:39:02.121Z,1.68
2018-04-07T00:40:02.121Z,1.69
2018-04-07T00:41:02.106Z,1.64
2018-04-07T00:42:02.106Z,1.65
2018-04-07T00:43:02.098Z,1.62
2018-04-07T00:44:02.088Z,1.72
2018-04-07T00:45:02.089Z,1.69
2018-04-07T00:46:02.076Z,1.55
2018-04-07T00:47:02.068Z,1.55
2018-04-07T00:48:02.083Z,1.60
2018-04-07T00:49:02.063Z,1.52
2018-04-07T00:50:02.047Z,1.40
2018-04-07T00:51:02.047Z,1.51
2018-04-07T00:52:02.035Z,1.50
2018-04-07T00:53:02.029Z,1.61
2018-04-07T00:54:02.026Z,1.54
2018-04-07T00:55:02.015Z,1.55
2018-04-07T00:56:02.014Z,1.52
2018-04-07T00:57:02.027Z,1.69
2018-04-07T00:58:01.998Z,1.71
2018-04-07T00:59:01.998Z,1.71
2018-04-07T01:00:01.986Z,1.76
2018-04-07T01:01:01.985Z,1.65
2018-04-07T01:02:02.019Z,1.72
2018-04-07T01:03:01.975Z,1.72
2018-04-07T01:04:01.962Z,1.60
2018-04-07T01:05:01.954Z,1.54
2018-04-07T01:06:01.949Z,1.46
2018-04-07T01:07:01.940Z,1.40
2018-04-07T01:08:01.932Z,1.40
2018-04-07T01:09:01.927Z,1.47
2018-04-07T01:10:01.923Z,1.51
2018-04-07T01:11:01.916Z,1.46
2018-04-07T01:12:01.912Z,1.44
2018-04-07T01:13:01.902Z,1.46
2018-04-07T01:14:01.898Z,1.54
2018-04-07T01:15:01.889Z,1.57
2018-04-07T01:16:01.895Z,1.42
2018-04-07T01:17:01.877Z,1.50
2018-04-07T01:18:01.871Z,1.57
2018-04-07T01:19:01.866Z,1.37
2018-04-07T01:20:01.858Z,1.47
2018-04-07T01:21:01.849Z,1.47
2018-04-07T01:22:01.847Z,1.51
2018-04-07T01:23:01.839Z,1.40
2018-04-07T01:24:01.838Z,1.43
2018-04-07T01:25:01.827Z,1.42
2018-04-07T01:26:01.829Z,1.47
2018-04-07T01:27:01.813Z,1.54
2018-04-07T01:28:01.804Z,1.55
2018-04-07T01:29:01.801Z,1.50
2018-04-07T01:30:01.792Z,1.40
2018-04-07T01:31:01.789Z,1.39
2018-04-07T01:32:01.779Z,1.42
2018-04-07T01:33:01.772Z,1.50
2018-04-07T01:34:01.771Z,1.43
2018-04-07T01:35:01.768Z,1.51
2018-04-07T01:36:01.756Z,1.40
2018-04-07T01:37:01.746Z,1.39
2018-04-07T01:38:01.741Z,1.37
2018-04-07T01:39:01.737Z,1.50
2018-04-07T01:40:01.732Z,1.42
2018-04-07T01:41:01.724Z,1.36
2018-04-07T01:42:01.717Z,1.29
2018-04-07T01:43:01.708Z,1.28
2018-04-07T01:44:01.702Z,1.33
2018-04-07T01:45:01.695Z,1.26
2018-04-07T01:46:01.689Z,1.32
2018-04-07T01:47:01.705Z,1.34
2018-04-07T01:48:01.677Z,1.33
2018-04-07T01:49:01.669Z,1.33
2018-04-07T01:50:01.663Z,1.29
2018-04-07T01:51:01.656Z,1.37
2018-04-07T01:52:01.650Z,1.36
2018-04-07T01:53:01.647Z,1.34
2018-04-07T01:54:01.635Z,1.39
2018-04-07T01:55:01.627Z,1.32
2018-04-07T01:56:01.628Z,1.37
2018-04-07T01:57:01.619Z,1.44
2018-04-07T01:58:01.609Z,1.40
2018-04-07T01:59:01.605Z,1.47
2018-04-07T02:00:01.594Z,1.40
2018-04-07T02:01:01.608Z,1.36
2018-04-07T02:02:01.585Z,1.28
2018-04-07T02:03:01.582Z,1.32
2018-04-07T02:04:01.570Z,1.22
2018-04-07T02:05:01.579Z,1.19
2018-04-07T02:06:01.572Z,1.22
2018-04-07T02:07:01.549Z,1.28
2018-04-07T02:08:01.548Z,1.32
2018-04-07T02:09:01.535Z,1.29
2018-04-07T02:10:01.529Z,1.22
2018-04-07T02:11:01.528Z,1.29
2018-04-07T02:12:01.520Z,1.29
2018-04-07T02:13:01.510Z,1.29
2018-04-07T02:14:01.504Z,1.34
2018-04-07T02:15:01.496Z,1.37
2018-04-07T02:16:01.493Z,1.37
2018-04-07T02:17:01.494Z,1.37
2018-04-07T02:18:01.487Z,1.47
2018-04-07T02:19:01.473Z,1.40
2018-04-07T02:20:01.463Z,1.50
2018-04-07T02:21:01.458Z,1.58
2018-04-07T02:22:01.462Z,1.57
2018-04-07T02:23:01.448Z,1.69
2018-04-07T02:24:01.455Z,1.78
2018-04-07T02:25:01.441Z,1.82
2018-04-07T02:26:01.423Z,1.89
2018-04-07T02:27:01.417Z,1.93
2018-04-07T02:28:01.411Z,1.89
2018-04-07T02:29:01.404Z,2.04
2018-04-07T02:30:01.398Z,2.02
2018-04-07T02:31:01.394Z,1.98
2018-04-07T02:32:01.386Z,2.08
2018-04-07T02:33:01.447Z,1.99
2018-04-07T02:34:01.408Z,2.01
2018-04-07T02:35:01.366Z,2.09
2018-04-07T02:36:01.358Z,1.97
2018-04-07T02:37:01.355Z,2.08
2018-04-07T02:38:01.344Z,2.08
2018-04-07T02:39:01.340Z,2.08
2018-04-07T02:40:01.345Z,2.09
2018-04-07T02:41:01.327Z,2.13
2018-04-07T02:42:01.993Z,2.06
2018-04-07T02:43:01.313Z,2.02
2018-04-07T02:44:01.305Z,2.10
2018-04-07T02:45:01.302Z,2.27
2018-04-07T02:46:01.302Z,2.17
2018-04-07T02:47:01.293Z,2.20
2018-04-07T02:48:01.281Z,2.19
2018-04-07T02:49:01.278Z,2.12
2018-04-07T02:50:01.270Z,2.10
2018-04-07T02:51:01.262Z,2.16
2018-04-07T02:52:01.989Z,2.09
2018-04-07T02:53:01.253Z,2.04
2018-04-07T02:54:01.244Z,2.09
2018-04-07T02:55:01.237Z,2.06
2018-04-07T02:56:01.229Z,2.01
2018-04-07T02:57:01.224Z,1.99
2018-04-07T02:58:01.218Z,2.04
2018-04-07T02:59:01.213Z,2.17
2018-04-07T03:00:01.207Z,2.31
2018-04-07T03:01:01.199Z,2.45
2018-04-07T03:02:01.193Z,2.48
2018-04-07T03:03:01.188Z,2.51
2018-04-07T03:04:01.197Z,2.41
2018-04-07T03:05:01.174Z,2.35
2018-04-07T03:06:01.167Z,2.27
2018-04-07T03:07:01.165Z,2.27
2018-04-07T03:08:01.156Z,2.30
2018-04-07T03:09:01.152Z,2.27
2018-04-07T03:10:01.142Z,2.23
2018-04-07T03:11:01.136Z,2.15
2018-04-07T03:12:01.128Z,2.26
2018-04-07T03:13:01.125Z,2.22
2018-04-07T03:14:01.116Z,2.22
2018-04-07T03:15:01.111Z,2.17
2018-04-07T03:16:01.107Z,2.17
2018-04-07T03:17:01.099Z,2.08
2018-04-07T03:18:01.091Z,2.20
2018-04-07T03:19:01.087Z,2.10
2018-04-07T03:20:01.083Z,2.28
2018-04-07T03:21:01.075Z,2.27
2018-04-07T03:22:01.067Z,2.30
2018-04-07T03:23:01.061Z,2.31
2018-04-07T03:24:01.055Z,2.27
2018-04-07T03:25:01.048Z,2.34
2018-04-07T03:26:01.042Z,2.33
2018-04-07T03:27:01.036Z,2.22
2018-04-07T03:28:01.029Z,2.37
2018-04-07T03:29:01.022Z,2.33
2018-04-07T03:30:01.019Z,2.30
2018-04-07T03:31:01.013Z,2.20
2018-04-07T03:32:01.007Z,2.19
2018-04-07T03:33:01.002Z,2.02
2018-04-07T03:34:00.994Z,2.01
2018-04-07T03:35:00.986Z,2.08
2018-04-07T03:36:00.982Z,1.90
2018-04-07T03:37:00.973Z,1.89
2018-04-07T03:38:00.970Z,1.97
2018-04-07T03:39:00.961Z,1.91
2018-04-07T03:40:00.956Z,2.04
2018-04-07T03:41:00.949Z,1.91
2018-04-07T03:42:00.942Z,2.04
2018-04-07T03:43:00.938Z,2.09
2018-04-07T03:44:00.930Z,1.93
2018-04-07T03:45:00.925Z,2.09
2018-04-07T03:46:00.919Z,2.08
2018-04-07T03:47:00.911Z,2.08
2018-04-07T03:48:00.905Z,1.90
2018-04-07T03:49:00.900Z,1.98
2018-04-07T03:50:00.891Z,1.87
2018-04-07T03:51:00.890Z,1.98
2018-04-07T03:52:00.878Z,1.79
2018-04-07T03:53:00.875Z,1.75
2018-04-07T03:54:00.868Z,1.69
2018-04-07T03:55:00.863Z,1.71
2018-04-07T03:56:00.854Z,1.72
2018-04-07T03:57:00.849Z,1.64
2018-04-07T03:58:00.843Z,1.57
2018-04-07T03:59:00.838Z,1.52
2018-04-07T04:00:00.831Z,1.51
2018-04-07T04:01:00.826Z,1.54
2018-04-07T04:02:00.816Z,1.52
2018-04-07T04:03:00.810Z,1.57
2018-04-07T04:04:00.801Z,1.44
2018-04-07T04:05:00.799Z,1.46
2018-04-07T04:06:00.788Z,1.43
2018-04-07T04:07:00.789Z,1.46
2018-04-07T04:08:00.777Z,1.36
2018-04-07T04:09:00.772Z,1.40
2018-04-07T04:10:00.764Z,1.46
2018-04-07T04:11:00.760Z,1.47
2018-04-07T04:12:00.757Z,1.47
2018-04-07T04:13:00.746Z,1.50
2018-04-07T04:14:00.738Z,1.46
2018-04-07T04:15:00.730Z,1.51
2018-04-07T04:16:00.724Z,1.52
2018-04-07T04:17:00.720Z,1.55
2018-04-07T04:18:00.714Z,1.51
2018-04-07T04:19:00.712Z,1.51
2018-04-07T04:20:00.700Z,1.52
2018-04-07T04:21:00.696Z,1.58
2018-04-07T04:22:00.685Z,1.60
2018-04-07T04:23:00.687Z,1.51
2018-04-07T04:24:00.687Z,1.54
2018-04-07T04:25:00.673Z,1.54
2018-04-07T04:26:00.660Z,1.57
2018-04-07T04:27:00.652Z,1.52
2018-04-07T04:28:00.650Z,1.58
2018-04-07T04:29:00.642Z,1.55
2018-04-07T04:30:00.637Z,1.80
2018-04-07T04:31:00.642Z,1.90
2018-04-07T04:32:00.642Z,1.78
2018-04-07T04:33:00.615Z,1.90
2018-04-07T04:34:00.608Z,1.99
2018-04-07T04:35:00.600Z,2.01
2018-04-07T04:36:00.595Z,1.98
2018-04-07T04:37:00.607Z,2.08
2018-04-07T04:38:00.587Z,2.02
2018-04-07T04:39:00.572Z,2.08
2018-04-07T04:40:00.574Z,1.97
2018-04-07T04:41:00.562Z,2.08
2018-04-07T04:42:00.552Z,1.90
2018-04-07T04:43:00.554Z,2.09
2018-04-07T04:44:00.542Z,2.08
2018-04-07T04:45:00.539Z,1.94
2018-04-07T04:46:00.529Z,2.02
2018-04-07T04:47:00.523Z,2.17
2018-04-07T04:48:00.517Z,2.16
2018-04-07T04:49:00.510Z,2.16
2018-04-07T04:50:00.521Z,2.26
2018-04-07T04:51:00.496Z,2.38
2018-04-07T04:52:00.491Z,2.41
2018-04-07T04:53:00.487Z,2.38
2018-04-07T04:54:00.478Z,2.48
2018-04-07T04:55:00.486Z,2.48
2018-04-07T04:56:00.464Z,2.55
2018-04-07T04:57:00.462Z,2.52
2018-04-07T04:58:00.455Z,2.55
2018-04-07T04:59:00.449Z,2.53
2018-04-07T05:00:00.439Z,2.69
2018-04-07T05:01:00.435Z,2.79
2018-04-07T05:02:00.430Z,2.77
2018-04-07T05:03:00.422Z,2.91
2018-04-07T05:04:00.415Z,2.95
2018-04-07T05:05:00.412Z,3.03
2018-04-07T05:06:00.403Z,3.10
2018-04-07T05:07:00.398Z,3.09
2018-04-07T05:08:00.392Z,3.20
2018-04-07T05:09:00.386Z,3.23
2018-04-07T05:10:00.379Z,3.39
2018-04-07T05:11:00.373Z,3.34
2018-04-07T05:12:00.372Z,3.43
2018-04-07T05:13:00.363Z,3.60
2018-04-07T05:14:00.355Z,3.57
2018-04-07T05:15:00.390Z,3.52
2018-04-07T05:16:00.346Z,3.65
2018-04-07T05:17:00.345Z,3.79
2018-04-07T05:18:00.332Z,3.94
2018-04-07T05:19:00.325Z,3.98
2018-04-07T05:20:00.320Z,3.97
2018-04-07T05:21:00.315Z,4.01
2018-04-07T05:22:00.307Z,4.16
2018-04-07T05:23:00.303Z,4.29
2018-04-07T05:24:00.298Z,4.52
2018-04-07T05:25:00.292Z,4.67
2018-04-07T05:26:00.295Z,5.05
2018-04-07T05:27:00.280Z,5.10
2018-04-07T05:28:00.273Z,5.17
2018-04-07T05:29:00.269Z,5.07
2018-04-07T05:30:00.269Z,4.95
2018-04-07T05:31:00.260Z,4.94
2018-04-07T05:32:00.252Z,4.91
2018-04-07T05:33:00.247Z,4.92
2018-04-07T05:34:00.245Z,5.04
2018-04-07T05:35:00.239Z,5.22
2018-04-07T05:36:00.244Z,5.48
2018-04-07T05:37:00.226Z,5.43
2018-04-07T05:38:00.222Z,5.30
2018-04-07T05:39:00.220Z,5.40
2018-04-07T05:40:00.213Z,5.59
2018-04-07T05:41:00.210Z,5.73
2018-04-07T05:42:00.201Z,6.06
2018-04-07T05:43:00.198Z,6.36
2018-04-07T05:44:00.192Z,6.62
2018-04-07T05:45:00.186Z,6.80
2018-04-07T05:46:00.183Z,6.95
2018-04-07T05:47:00.178Z,6.90
2018-04-07T05:48:00.173Z,6.87
2018-04-07T05:49:00.169Z,7.02
2018-04-07T05:50:00.166Z,7.15
2018-04-07T05:51:00.166Z,7.27
2018-04-07T05:52:00.157Z,7.29
2018-04-07T05:53:00.150Z,7.34
2018-04-07T05:54:00.144Z,7.40
2018-04-07T05:55:00.144Z,7.59
2018-04-07T05:56:00.137Z,7.77
2018-04-07T05:57:00.139Z,8.10
2018-04-07T05:58:00.130Z,8.14
2018-04-07T05:59:00.126Z,8.22
2018-04-07T06:00:00.126Z,8.29
2018-04-07T06:01:00.122Z,8.39
2018-04-07T06:02:00.115Z,8.40
2018-04-07T06:03:00.110Z,8.44
2018-04-07T06:04:00.107Z,8.63
2018-04-07T06:05:00.104Z,8.69
2018-04-07T06:06:00.107Z,8.69
2018-04-07T06:07:00.097Z,8.69
2018-04-07T06:08:00.096Z,8.69
2018-04-07T06:09:00.091Z,8.75
2018-04-07T06:10:00.089Z,8.73
2018-04-07T06:11:00.089Z,8.72
2018-04-07T06:12:00.084Z,8.71
2018-04-07T06:13:00.127Z,8.91
2018-04-07T06:14:00.076Z,8.93
2018-04-07T06:15:00.075Z,9.04
2018-04-07T06:16:00.074Z,9.21
2018-04-07T06:17:00.066Z,9.28
2018-04-07T06:18:00.064Z,9.15
2018-04-07T06:19:00.057Z,9.23
2018-04-07T06:20:00.056Z,9.21
2018-04-07T06:21:00.063Z,9.31
2018-04-07T06:22:00.052Z,9.30
2018-04-07T06:23:00.047Z,9.31
2018-04-07T06:24:00.046Z,9.43
2018-04-07T06:25:00.044Z,9.60
2018-04-07T06:26:00.039Z,9.71
2018-04-07T06:27:00.048Z,9.85
2018-04-07T06:28:00.045Z,9.99
2018-04-07T06:29:00.033Z,10.10
2018-04-07T06:30:00.032Z,10.25
2018-04-07T06:31:00.030Z,10.77
2018-04-07T06:32:00.044Z,11.99
2018-04-07T06:33:00.023Z,13.24
2018-04-07T06:34:00.025Z,14.56
2018-04-07T06:35:00.024Z,15.54
2018-04-07T06:36:00.020Z,16.26
2018-04-07T06:37:00.019Z,15.72
2018-04-07T06:38:00.026Z,15.99
2018-04-07T06:39:00.017Z,16.03
2018-04-07T06:40:00.013Z,15.86
2018-04-07T06:41:00.011Z,16.35
2018-04-07T06:42:00.037Z,16.71
2018-04-07T06:43:00.014Z,16.78
2018-04-07T06:44:00.015Z,17.22
2018-04-07T06:45:00.009Z,17.57
2018-04-07T06:46:00.009Z,17.87
2018-04-07T06:47:00.010Z,17.91
2018-04-07T06:48:00.060Z,18.18
2018-04-07T06:49:00.015Z,18.22
2018-04-07T06:50:00.018Z,18.03
2018-04-07T06:51:00.013Z,17.36
2018-04-07T06:52:00.017Z,17.18
2018-04-07T06:53:00.032Z,17.62
2018-04-07T06:54:00.021Z,17.88
2018-04-07T06:55:00.072Z,17.84
2018-04-07T06:56:00.033Z,18.28
2018-04-07T06:57:00.051Z,18.10
2018-04-07T06:58:00.034Z,18.07
2018-04-07T06:59:00.036Z,18.19
2018-04-07T07:00:00.041Z,18.19
2018-04-07T07:01:00.046Z,17.97
2018-04-07T07:02:00.051Z,17.99
2018-04-07T07:03:00.053Z,18.13
2018-04-07T07:04:00.056Z,17.91
2018-04-07T07:05:00.062Z,17.67
2018-04-07T07:06:00.093Z,17.40
2018-04-07T07:07:00.075Z,17.47
2018-04-07T07:08:00.077Z,17.82
2018-04-07T07:09:00.110Z,17.84
2018-04-07T07:10:00.084Z,18.42
2018-04-07T07:11:00.093Z,18.79
2018-04-07T07:12:00.097Z,19.11
2018-04-07T07:13:00.103Z,19.86
2018-04-07T07:14:00.107Z,20.30
2018-04-07T07:15:00.113Z,20.46
2018-04-07T07:16:00.125Z,20.87
2018-04-07T07:17:00.124Z,20.53
2018-04-07T07:18:00.129Z,20.61
2018-04-07T07:19:00.136Z,20.79
2018-04-07T07:20:00.143Z,20.34
2018-04-07T07:21:00.153Z,20.53
2018-04-07T07:22:00.155Z,21.13
2018-04-07T07:23:00.160Z,20.98
2018-04-07T07:24:00.170Z,21.19
2018-04-07T07:25:00.175Z,20.62
2018-04-07T07:26:00.180Z,20.80
2018-04-07T07:27:00.193Z,21.19
2018-04-07T07:28:00.204Z,21.42
2018-04-07T07:29:00.205Z,21.46
2018-04-07T07:30:00.211Z,21.95
2018-04-07T07:31:00.230Z,22.06
2018-04-07T07:32:00.227Z,21.56
2018-04-07T07:33:00.235Z,21.99
2018-04-07T07:34:00.240Z,22.01
2018-04-07T07:35:00.249Z,22.01
2018-04-07T07:36:00.259Z,22.44
2018-04-07T07:37:00.267Z,22.53
2018-04-07T07:38:00.279Z,22.54
2018-04-07T07:39:00.279Z,22.02
2018-04-07T07:40:00.294Z,21.14
2018-04-07T07:41:00.302Z,20.93
2018-04-07T07:42:00.340Z,20.09
2018-04-07T07:43:00.317Z,20.02
2018-04-07T07:44:00.326Z,19.66
2018-04-07T07:45:00.336Z,19.87
2018-04-07T07:46:00.341Z,19.91
2018-04-07T07:47:00.355Z,19.86
2018-04-07T07:48:00.361Z,20.10
2018-04-07T07:49:00.373Z,20.27
2018-04-07T07:50:00.379Z,20.09
2018-04-07T07:51:00.387Z,20.42
2018-04-07T07:52:00.399Z,20.16
2018-04-07T07:53:00.406Z,20.23
2018-04-07T07:54:00.418Z,19.76
2018-04-07T07:55:00.423Z,19.53
2018-04-07T07:56:00.432Z,19.31
2018-04-07T07:57:00.447Z,19.06
2018-04-07T07:58:00.451Z,19.02
2018-04-07T07:59:00.462Z,18.95
2018-04-07T08:00:00.474Z,18.46
2018-04-07T08:01:00.483Z,18.17
2018-04-07T08:02:00.491Z,18.13
2018-04-07T08:03:00.512Z,17.81
2018-04-07T08:04:00.506Z,17.81
2018-04-07T08:05:00.516Z,17.87
2018-04-07T08:06:00.529Z,17.71
2018-04-07T08:07:00.536Z,17.55
2018-04-07T08:08:00.549Z,17.36
2018-04-07T08:09:00.581Z,17.46
2018-04-07T08:10:00.572Z,17.55
2018-04-07T08:11:00.577Z,17.50
2018-04-07T08:12:00.596Z,17.63
2018-04-07T08:13:00.602Z,17.66
2018-04-07T08:14:00.611Z,17.81
2018-04-07T08:15:00.622Z,17.70
2018-04-07T08:16:00.632Z,17.59
2018-04-07T08:17:00.643Z,17.63
2018-04-07T08:18:00.654Z,17.51
2018-04-07T08:19:00.664Z,17.76
2018-04-07T08:20:00.676Z,17.91
2018-04-07T08:21:00.690Z,17.79
2018-04-07T08:22:00.696Z,17.82
2018-04-07T08:23:00.703Z,17.99
2018-04-07T08:24:00.712Z,17.91
2018-04-07T08:25:00.724Z,17.84
2018-04-07T08:26:00.733Z,17.81
2018-04-07T08:27:00.743Z,17.97
2018-04-07T08:28:00.757Z,18.18
2018-04-07T08:29:00.761Z,18.37
2018-04-07T08:30:00.771Z,18.42
2018-04-07T08:31:00.786Z,18.42
2018-04-07T08:32:00.798Z,18.36
2018-04-07T08:33:00.801Z,18.42
2018-04-07T08:34:00.810Z,18.42
2018-04-07T08:35:00.821Z,18.72
2018-04-07T08:36:00.829Z,18.79
2018-04-07T08:37:00.843Z,18.80
2018-04-07T08:38:00.845Z,18.70
2018-04-07T08:39:00.857Z,18.77
2018-04-07T08:40:00.864Z,18.37
2018-04-07T08:41:00.872Z,18.09
2018-04-07T08:42:00.878Z,17.97
2018-04-07T08:43:00.889Z,18.22
2018-04-07T08:44:00.895Z,18.34
2018-04-07T08:45:00.904Z,18.64
2018-04-07T08:46:00.942Z,18.72
2018-04-07T08:47:00.914Z,18.67
2018-04-07T08:48:00.927Z,18.64
2018-04-07T08:49:00.932Z,18.76
2018-04-07T08:50:00.938Z,18.91
2018-04-07T08:51:00.982Z,18.92
2018-04-07T08:52:00.953Z,18.80
2018-04-07T08:53:00.960Z,18.94
2018-04-07T08:54:00.969Z,19.13
2018-04-07T08:55:00.973Z,19.18
2018-04-07T08:56:00.979Z,19.01
2018-04-07T08:57:00.988Z,18.99
2018-04-07T08:58:00.996Z,18.87
2018-04-07T08:59:01.003Z,18.84
2018-04-07T09:00:01.010Z,18.92
2018-04-07T09:01:01.015Z,18.83
2018-04-07T09:02:01.021Z,18.95
2018-04-07T09:03:01.029Z,19.17
2018-04-07T09:04:01.037Z,19.33
2018-04-07T09:05:01.041Z,19.25
2018-04-07T09:06:01.065Z,19.15
2018-04-07T09:07:01.054Z,19.42
2018-04-07T09:08:01.142Z,19.47
2018-04-07T09:09:01.068Z,19.42
2018-04-07T09:10:01.074Z,19.50
2018-04-07T09:11:01.085Z,19.35
2018-04-07T09:12:01.088Z,19.23
2018-04-07T09:13:01.096Z,19.14
2018-04-07T09:14:01.109Z,19.28
2018-04-07T09:15:01.110Z,19.24
2018-04-07T09:16:01.120Z,19.28
2018-04-07T09:17:01.125Z,19.33
2018-04-07T09:18:01.129Z,19.33
2018-04-07T09:19:01.136Z,19.57
2018-04-07T09:20:01.143Z,19.66
2018-04-07T09:21:01.150Z,19.73
2018-04-07T09:22:01.158Z,19.83
2018-04-07T09:23:01.163Z,19.88
2018-04-07T09:24:01.174Z,19.98
2018-04-07T09:25:01.180Z,19.91
2018-04-07T09:26:01.196Z,19.76
2018-04-07T09:27:01.201Z,19.88
2018-04-07T09:28:01.202Z,19.86
2018-04-07T09:29:01.213Z,19.76
2018-04-07T09:30:01.223Z,19.91
2018-04-07T09:31:01.232Z,19.97
2018-04-07T09:32:01.242Z,19.72
2018-04-07T09:33:01.245Z,19.76
2018-04-07T09:34:01.253Z,19.87
2018-04-07T09:35:01.264Z,20.02
2018-04-07T09:36:01.276Z,20.12
2018-04-07T09:37:01.290Z,20.09
2018-04-07T09:38:01.311Z,19.95
2018-04-07T09:39:01.304Z,19.97
2018-04-07T09:40:01.316Z,19.72
2018-04-07T09:41:01.328Z,19.50
2018-04-07T09:42:01.366Z,19.39
2018-04-07T09:43:01.350Z,19.57
2018-04-07T09:44:01.361Z,19.58
2018-04-07T09:45:01.374Z,19.66
2018-04-07T09:46:01.383Z,19.75
2018-04-07T09:47:01.396Z,19.84
2018-04-07T09:48:01.408Z,19.75
2018-04-07T09:49:01.419Z,19.78
2018-04-07T09:50:01.427Z,19.80
2018-04-07T09:51:01.440Z,19.72
2018-04-07T09:52:01.451Z,19.70
2018-04-07T09:53:01.463Z,19.54
2018-04-07T09:54:01.472Z,19.20
2018-04-07T09:55:01.483Z,19.35
2018-04-07T09:56:01.493Z,19.35
2018-04-07T09:57:01.502Z,19.58
2018-04-07T09:58:01.512Z,19.80
2018-04-07T09:59:01.519Z,19.80
2018-04-07T10:00:01.535Z,19.86
2018-04-07T10:01:01.540Z,19.98
2018-04-07T10:02:01.560Z,20.06
2018-04-07T10:03:01.566Z,19.84
2018-04-07T10:04:01.567Z,19.94
2018-04-07T10:05:01.572Z,20.12
2018-04-07T10:06:01.581Z,20.21
2018-04-07T10:07:01.587Z,20.20
2018-04-07T10:08:01.596Z,20.50
2018-04-07T10:09:01.603Z,20.68
2018-04-07T10:10:01.613Z,20.86
2018-04-07T10:11:01.630Z,20.86
2018-04-07T10:12:01.636Z,20.89
2018-04-07T10:13:01.633Z,20.83
2018-04-07T10:14:01.641Z,20.80
2018-04-07T10:15:01.664Z,20.93
2018-04-07T10:16:01.654Z,21.09
2018-04-07T10:17:01.664Z,21.35
2018-04-07T10:18:01.670Z,21.29
2018-04-07T10:19:01.679Z,21.21
2018-04-07T10:20:01.683Z,21.35
2018-04-07T10:21:01.690Z,21.44
2018-04-07T10:22:01.742Z,21.44
2018-04-07T10:23:01.709Z,21.29
2018-04-07T10:24:01.713Z,20.95
2018-04-07T10:25:01.720Z,20.93
2018-04-07T10:26:01.728Z,21.19
2018-04-07T10:27:01.732Z,21.24
2018-04-07T10:28:01.740Z,21.29
2018-04-07T10:29:01.752Z,21.41
2018-04-07T10:30:01.757Z,21.60
2018-04-07T10:31:01.758Z,21.74
2018-04-07T10:32:01.771Z,21.75
2018-04-07T10:33:01.794Z,21.69
2018-04-07T10:34:01.785Z,21.81
2018-04-07T10:35:01.793Z,22.12
2018-04-07T10:36:01.798Z,22.17
2018-04-07T10:37:01.801Z,22.38
2018-04-07T10:38:01.817Z,22.46
2018-04-07T10:39:01.815Z,22.43
2018-04-07T10:40:01.847Z,22.43
2018-04-07T10:41:01.828Z,22.35
2018-04-07T10:42:01.841Z,22.38
2018-04-07T10:43:01.848Z,22.46
2018-04-07T10:44:01.850Z,22.44
2018-04-07T10:45:01.854Z,22.43
2018-04-07T10:46:01.867Z,22.16
2018-04-07T10:47:01.878Z,22.32
2018-04-07T10:48:01.878Z,22.34
2018-04-07T10:49:01.892Z,22.54
2018-04-07T10:50:01.899Z,22.57
2018-04-07T10:51:01.902Z,22.57
2018-04-07T10:52:01.912Z,22.56
2018-04-07T10:53:01.923Z,22.28
2018-04-07T10:54:01.926Z,21.75
2018-04-07T10:55:01.923Z,21.95
2018-04-07T10:56:01.938Z,22.06
2018-04-07T10:57:01.943Z,22.25
2018-04-07T10:58:01.951Z,22.29
2018-04-07T10:59:01.960Z,22.28
2018-04-07T11:00:01.965Z,22.16
2018-04-07T11:01:01.975Z,22.14
2018-04-07T11:02:01.982Z,22.41
2018-04-07T11:03:01.990Z,22.68
2018-04-07T11:04:01.993Z,23.02
2018-04-07T11:05:02.018Z,22.96
2018-04-07T11:06:02.009Z,23.23
2018-04-07T11:07:02.012Z,23.29
2018-04-07T11:08:02.020Z,22.96
2018-04-07T11:09:02.026Z,23.15
2018-04-07T11:10:02.033Z,22.99
2018-04-07T11:11:02.046Z,22.89
2018-04-07T11:12:02.048Z,22.96
2018-04-07T11:13:02.054Z,23.01
2018-04-07T11:14:02.067Z,22.93
2018-04-07T11:15:02.069Z,23.23
2018-04-07T11:16:02.075Z,23.23
2018-04-07T11:17:02.084Z,23.31
2018-04-07T11:18:02.093Z,23.12
2018-04-07T11:19:02.132Z,23.14
2018-04-07T11:20:02.107Z,23.11
2018-04-07T11:21:02.113Z,23.15
2018-04-07T11:22:02.129Z,23.27
2018-04-07T11:23:02.128Z,23.42
2018-04-07T11:24:02.130Z,23.53
2018-04-07T11:25:02.141Z,23.32
2018-04-07T11:26:02.147Z,23.19
2018-04-07T11:27:02.155Z,23.23
2018-04-07T11:28:02.163Z,23.32
2018-04-07T11:29:02.175Z,23.38
2018-04-07T11:30:02.178Z,23.29
2018-04-07T11:31:02.186Z,23.23
2018-04-07T11:32:02.194Z,23.39
2018-04-07T11:33:02.199Z,23.46
2018-04-07T11:34:02.213Z,23.52
2018-04-07T11:35:02.212Z,23.32
2018-04-07T11:36:02.220Z,23.47
2018-04-07T11:37:02.232Z,23.57
2018-04-07T11:38:02.238Z,23.60
2018-04-07T11:39:02.242Z,23.76
2018-04-07T11:40:02.251Z,23.76
2018-04-07T11:41:02.257Z,23.86
2018-04-07T11:42:02.264Z,23.94
2018-04-07T11:43:02.273Z,23.71
2018-04-07T11:44:02.317Z,23.87
2018-04-07T11:45:02.304Z,24.07
2018-04-07T11:46:02.296Z,24.24
2018-04-07T11:47:02.301Z,24.16
2018-04-07T11:48:02.308Z,24.23
2018-04-07T11:49:02.316Z,24.26
2018-04-07T11:50:02.320Z,24.38
2018-04-07T11:51:02.329Z,24.38
2018-04-07T11:52:02.343Z,24.38
2018-04-07T11:53:02.346Z,24.23
2018-04-07T11:54:02.354Z,24.16
2018-04-07T11:55:02.360Z,24.22
2018-04-07T11:56:02.374Z,24.22
2018-04-07T11:57:02.372Z,24.14
2018-04-07T11:58:02.379Z,24.24
2018-04-07T11:59:02.395Z,24.14
2018-04-07T12:00:02.399Z,23.97
2018-04-07T12:01:02.404Z,24.04
2018-04-07T12:02:02.413Z,23.87
2018-04-07T12:03:02.419Z,24.05
2018-04-07T12:04:02.435Z,24.04
2018-04-07T12:05:02.438Z,24.00
2018-04-07T12:06:02.440Z,24.10
2018-04-07T12:07:02.449Z,24.01
2018-04-07T12:08:02.463Z,24.00
2018-04-07T12:09:02.463Z,24.04
2018-04-07T12:10:02.477Z,23.87
2018-04-07T12:11:02.488Z,23.90
2018-04-07T12:12:02.486Z,24.07
2018-04-07T12:13:02.494Z,24.14
2018-04-07T12:14:02.504Z,24.22
2018-04-07T12:15:02.512Z,24.35
2018-04-07T12:16:02.528Z,24.37
2018-04-07T12:17:02.525Z,24.41
2018-04-07T12:18:02.533Z,24.44
2018-04-07T12:19:02.540Z,24.02
2018-04-07T12:20:02.551Z,24.05
2018-04-07T12:21:02.555Z,24.19
2018-04-07T12:22:02.574Z,24.37
2018-04-07T12:23:02.574Z,24.49
2018-04-07T12:24:02.578Z,24.45
2018-04-07T12:25:02.611Z,24.50
2018-04-07T12:26:02.591Z,24.44
2018-04-07T12:27:02.598Z,24.45
2018-04-07T12:28:02.604Z,24.34
2018-04-07T12:29:02.612Z,24.19
2018-04-07T12:30:02.620Z,24.16
2018-04-07T12:31:02.629Z,24.24
2018-04-07T12:32:02.639Z,24.17
2018-04-07T12:33:02.647Z,24.12
2018-04-07T12:34:02.651Z,24.14
2018-04-07T12:35:02.657Z,24.17
2018-04-07T12:36:02.688Z,24.24
2018-04-07T12:37:02.682Z,24.38
2018-04-07T12:38:02.717Z,24.27
2018-04-07T12:39:02.692Z,24.19
2018-04-07T12:40:02.705Z,24.02
2018-04-07T12:41:02.703Z,23.75
2018-04-07T12:42:02.713Z,23.90
2018-04-07T12:43:02.732Z,24.01
2018-04-07T12:44:02.731Z,24.13
2018-04-07T12:45:02.739Z,24.04
2018-04-07T12:46:02.740Z,24.12
2018-04-07T12:47:02.755Z,24.22
2018-04-07T12:48:02.772Z,24.29
2018-04-07T12:49:02.764Z,24.41
2018-04-07T12:50:02.771Z,24.32
2018-04-07T12:51:02.778Z,24.39
2018-04-07T12:52:02.785Z,24.38
2018-04-07T12:53:02.796Z,24.19
2018-04-07T12:54:02.822Z,24.32
2018-04-07T12:55:02.810Z,24.37
2018-04-07T12:56:02.830Z,24.39
2018-04-07T12:57:02.824Z,24.56
2018-04-07T12:58:02.830Z,24.73
2018-04-07T12:59:02.876Z,24.95
2018-04-07T13:00:02.885Z,25.01
2018-04-07T13:01:02.855Z,25.05
2018-04-07T13:02:02.862Z,24.75
2018-04-07T13:03:02.879Z,24.76
2018-04-07T13:04:02.880Z,24.82
2018-04-07T13:05:02.883Z,24.94